CJV5 weather

Neepawa Airport
Neepawa, Manitoba, Canada

Public forecast

Using degrees Celsius for public forecast. Weather courtesy of forecast.io.

Closest aviation weather report (METAR) to Neepawa Airport

Closest report is Brandon Municipal Airport, 25.8 nm (47.8 km) SW. Retrieved 2019/10/15 19:00 UTC (53 minutes ago):

CYBR 151900Z 33012G17KT 15SM BKN020 OVC040 04/00 A3012 RMK SC5SC3 SLP222

Closest aviation forecast (TAF) to Neepawa Airport

Closest forecast is Brandon Municipal Airport, 25.8 nm (47.8 km) SW. Retrieved 2019/10/15 18:39 UTC (1 hour ago):

TAF CYBR 151738Z 1518/1606 34012KT P6SM BKN030 TEMPO 1518/1603 P6SM -SHRA BKN015 FM160300 33007KT P6SM BKN030 TEMPO 1603/1606 BKN015 RMK NXT FCST BY 160000Z